sensor_id;sensor_type;location;lat;lon;timestamp;temperature;humidity
12481;DHT22;6305;48.398;11.762;2023-09-19T00:02:05;14.50;99.90
12481;DHT22;6305;48.398;11.762;2023-09-19T00:04:35;14.50;99.90
12481;DHT22;6305;48.398;11.762;2023-09-19T00:07:05;14.60;99.90
12481;DHT22;6305;48.398;11.762;2023-09-19T00:09:32;14.60;99.90
12481;DHT22;6305;48.398;11.762;2023-09-19T00:12:04;14.60;99.90
12481;DHT22;6305;48.398;11.762;2023-09-19T00:14:31;14.60;99.90
12481;DHT22;6305;48.398;11.762;2023-09-19T00:17:01;14.50;99.90
12481;DHT22;6305;48.398;11.762;2023-09-19T00:19:31;14.50;99.90
12481;DHT22;6305;48.398;11.762;2023-09-19T00:22:01;14.50;99.90
12481;DHT22;6305;48.398;11.762;2023-09-19T00:24:28;14.50;99.90
12481;DHT22;6305;48.398;11.762;2023-09-19T00:26:58;14.40;99.90
12481;DHT22;6305;48.398;11.762;2023-09-19T00:29:25;14.40;99.90
12481;DHT22;6305;48.398;11.762;2023-09-19T00:31:55;14.30;99.90
12481;DHT22;6305;48.398;11.762;2023-09-19T00:34:23;14.30;99.90
12481;DHT22;6305;48.398;11.762;2023-09-19T00:36:51;14.30;99.90
12481;DHT22;6305;48.398;11.762;2023-09-19T00:39:21;14.30;99.90
12481;DHT22;6305;48.398;11.762;2023-09-19T00:41:51;14.30;99.90
12481;DHT22;6305;48.398;11.762;2023-09-19T00:44:20;14.20;99.90
12481;DHT22;6305;48.398;11.762;2023-09-19T00:46:50;14.30;99.90
12481;DHT22;6305;48.398;11.762;2023-09-19T00:49:17;14.20;99.90
12481;DHT22;6305;48.398;11.762;2023-09-19T00:51:48;14.20;99.90
12481;DHT22;6305;48.398;11.762;2023-09-19T00:54:16;14.20;99.90
12481;DHT22;6305;48.398;11.762;2023-09-19T00:56:46;14.20;99.90
12481;DHT22;6305;48.398;11.762;2023-09-19T00:59:14;14.30;99.90
12481;DHT22;6305;48.398;11.762;2023-09-19T01:01:42;14.40;99.90
12481;DHT22;6305;48.398;11.762;2023-09-19T01:04:11;14.40;99.90
12481;DHT22;6305;48.398;11.762;2023-09-19T01:06:39;14.50;99.90
12481;DHT22;6305;48.398;11.762;2023-09-19T01:09:06;14.50;99.90
12481;DHT22;6305;48.398;11.762;2023-09-19T01:11:40;14.50;99.90
12481;DHT22;6305;48.398;11.762;2023-09-19T01:14:19;14.60;99.90
12481;DHT22;6305;48.398;11.762;2023-09-19T01:16:56;14.50;99.90
12481;DHT22;6305;48.398;11.762;2023-09-19T01:19:56;14.50;99.90
12481;DHT22;6305;48.398;11.762;2023-09-19T01:22:37;14.60;99.90
12481;DHT22;6305;48.398;11.762;2023-09-19T01:28:32;14.70;99.90
12481;DHT22;6305;48.398;11.762;2023-09-19T01:31:06;14.70;99.90
12481;DHT22;6305;48.398;11.762;2023-09-19T01:33:55;14.70;99.90
12481;DHT22;6305;48.398;11.762;2023-09-19T01:36:28;14.70;99.90
12481;DHT22;6305;48.398;11.762;2023-09-19T01:38:57;14.70;99.90
12481;DHT22;6305;48.398;11.762;2023-09-19T01:41:41;14.70;99.90
12481;DHT22;6305;48.398;11.762;2023-09-19T01:44:17;14.70;99.90
12481;DHT22;6305;48.398;11.762;2023-09-19T01:46:47;14.80;99.90
12481;DHT22;6305;48.398;11.762;2023-09-19T01:49:22;14.80;99.90
12481;DHT22;6305;48.398;11.762;2023-09-19T01:51:59;14.90;99.90
12481;DHT22;6305;48.398;11.762;2023-09-19T01:54:32;14.90;99.90
12481;DHT22;6305;48.398;11.762;2023-09-19T01:57:09;14.90;99.90
12481;DHT22;6305;48.398;11.762;2023-09-19T01:59:45;14.90;99.90
12481;DHT22;6305;48.398;11.762;2023-09-19T02:02:15;15.00;99.90
12481;DHT22;6305;48.398;11.762;2023-09-19T02:04:43;15.10;99.90
12481;DHT22;6305;48.398;11.762;2023-09-19T02:07:10;15.10;99.90
12481;DHT22;6305;48.398;11.762;2023-09-19T02:09:37;15.30;99.90
12481;DHT22;6305;48.398;11.762;2023-09-19T02:12:05;15.30;99.90
12481;DHT22;6305;48.398;11.762;2023-09-19T02:14:33;15.40;99.90
12481;DHT22;6305;48.398;11.762;2023-09-19T02:17:02;15.50;99.90
12481;DHT22;6305;48.398;11.762;2023-09-19T02:19:32;15.50;99.90
12481;DHT22;6305;48.398;11.762;2023-09-19T02:21:59;15.60;99.90
12481;DHT22;6305;48.398;11.762;2023-09-19T02:24:29;15.60;99.90
12481;DHT22;6305;48.398;11.762;2023-09-19T02:26:56;15.70;99.90
12481;DHT22;6305;48.398;11.762;2023-09-19T02:29:25;15.80;99.90
12481;DHT22;6305;48.398;11.762;2023-09-19T02:31:52;15.70;99.90
12481;DHT22;6305;48.398;11.762;2023-09-19T02:34:21;15.80;99.90
12481;DHT22;6305;48.398;11.762;2023-09-19T02:36:50;15.90;99.90
12481;DHT22;6305;48.398;11.762;2023-09-19T02:39:19;15.90;99.90
12481;DHT22;6305;48.398;11.762;2023-09-19T02:41:46;16.00;99.90
12481;DHT22;6305;48.398;11.762;2023-09-19T02:44:14;16.00;99.90
12481;DHT22;6305;48.398;11.762;2023-09-19T02:46:41;16.00;99.90
12481;DHT22;6305;48.398;11.762;2023-09-19T02:49:08;16.10;99.90
12481;DHT22;6305;48.398;11.762;2023-09-19T02:51:35;16.10;99.90
12481;DHT22;6305;48.398;11.762;2023-09-19T02:54:03;16.10;99.90
12481;DHT22;6305;48.398;11.762;2023-09-19T02:56:31;16.20;99.90
12481;DHT22;6305;48.398;11.762;2023-09-19T02:58:58;16.10;99.90
12481;DHT22;6305;48.398;11.762;2023-09-19T03:01:26;16.00;99.90
12481;DHT22;6305;48.398;11.762;2023-09-19T03:03:54;16.00;99.90
12481;DHT22;6305;48.398;11.762;2023-09-19T03:06:21;15.90;99.90
12481;DHT22;6305;48.398;11.762;2023-09-19T03:08:50;15.90;99.90
12481;DHT22;6305;48.398;11.762;2023-09-19T03:11:20;15.90;99.90
12481;DHT22;6305;48.398;11.762;2023-09-19T03:13:53;15.80;99.90
12481;DHT22;6305;48.398;11.762;2023-09-19T03:16:21;15.70;99.90
12481;DHT22;6305;48.398;11.762;2023-09-19T03:18:51;15.70;99.90
12481;DHT22;6305;48.398;11.762;2023-09-19T03:21:18;15.70;99.90
12481;DHT22;6305;48.398;11.762;2023-09-19T03:23:47;15.70;99.90
12481;DHT22;6305;48.398;11.762;2023-09-19T03:26:15;15.60;99.90
12481;DHT22;6305;48.398;11.762;2023-09-19T03:28:44;15.60;99.90
12481;DHT22;6305;48.398;11.762;2023-09-19T03:31:12;15.50;99.90
12481;DHT22;6305;48.398;11.762;2023-09-19T03:33:39;15.50;99.90
12481;DHT22;6305;48.398;11.762;2023-09-19T03:36:06;15.50;99.90
12481;DHT22;6305;48.398;11.762;2023-09-19T03:38:34;15.50;99.90
12481;DHT22;6305;48.398;11.762;2023-09-19T03:41:01;15.60;99.90
12481;DHT22;6305;48.398;11.762;2023-09-19T03:43:28;15.60;99.90
12481;DHT22;6305;48.398;11.762;2023-09-19T03:45:57;15.60;99.90
12481;DHT22;6305;48.398;11.762;2023-09-19T03:48:28;15.50;99.90
12481;DHT22;6305;48.398;11.762;2023-09-19T03:50:56;15.50;99.90
12481;DHT22;6305;48.398;11.762;2023-09-19T03:53:23;15.50;99.90
12481;DHT22;6305;48.398;11.762;2023-09-19T03:55:50;15.50;99.90
12481;DHT22;6305;48.398;11.762;2023-09-19T03:58:18;15.50;99.90
12481;DHT22;6305;48.398;11.762;2023-09-19T04:00:46;15.40;99.90
12481;DHT22;6305;48.398;11.762;2023-09-19T04:03:15;15.40;99.90
12481;DHT22;6305;48.398;11.762;2023-09-19T04:05:46;15.40;99.90
12481;DHT22;6305;48.398;11.762;2023-09-19T04:08:13;15.40;99.90
12481;DHT22;6305;48.398;11.762;2023-09-19T04:10:42;15.40;99.90
12481;DHT22;6305;48.398;11.762;2023-09-19T04:13:10;15.50;99.90
12481;DHT22;6305;48.398;11.762;2023-09-19T04:15:37;15.50;99.90
12481;DHT22;6305;48.398;11.762;2023-09-19T04:18:06;15.50;99.90
12481;DHT22;6305;48.398;11.762;2023-09-19T04:20:34;15.60;99.90
12481;DHT22;6305;48.398;11.762;2023-09-19T04:23:01;15.60;99.90
12481;DHT22;6305;48.398;11.762;2023-09-19T04:25:28;15.70;99.90
12481;DHT22;6305;48.398;11.762;2023-09-19T04:27:55;15.70;99.90
12481;DHT22;6305;48.398;11.762;2023-09-19T04:30:22;15.70;99.90
12481;DHT22;6305;48.398;11.762;2023-09-19T04:32:49;15.70;99.90
12481;DHT22;6305;48.398;11.762;2023-09-19T04:35:17;15.70;99.90
12481;DHT22;6305;48.398;11.762;2023-09-19T04:37:45;15.70;99.90
12481;DHT22;6305;48.398;11.762;2023-09-19T04:40:13;15.80;99.90
12481;DHT22;6305;48.398;11.762;2023-09-19T04:42:43;15.80;99.90
12481;DHT22;6305;48.398;11.762;2023-09-19T04:45:10;15.90;99.90
12481;DHT22;6305;48.398;11.762;2023-09-19T04:47:38;15.90;99.90
12481;DHT22;6305;48.398;11.762;2023-09-19T04:50:08;16.00;99.90
12481;DHT22;6305;48.398;11.762;2023-09-19T04:52:40;16.00;99.90
12481;DHT22;6305;48.398;11.762;2023-09-19T04:55:11;16.00;99.90
12481;DHT22;6305;48.398;11.762;2023-09-19T04:57:42;16.00;99.90
12481;DHT22;6305;48.398;11.762;2023-09-19T05:00:11;16.00;99.90
12481;DHT22;6305;48.398;11.762;2023-09-19T05:02:40;16.00;99.90
12481;DHT22;6305;48.398;11.762;2023-09-19T05:05:09;16.00;99.90
12481;DHT22;6305;48.398;11.762;2023-09-19T05:07:37;16.10;99.90
12481;DHT22;6305;48.398;11.762;2023-09-19T05:10:06;16.10;99.90
12481;DHT22;6305;48.398;11.762;2023-09-19T05:12:35;16.10;99.90
12481;DHT22;6305;48.398;11.762;2023-09-19T05:15:02;16.10;99.90
12481;DHT22;6305;48.398;11.762;2023-09-19T05:17:30;16.10;99.90
12481;DHT22;6305;48.398;11.762;2023-09-19T05:19:58;16.10;99.90
12481;DHT22;6305;48.398;11.762;2023-09-19T05:22:27;16.10;99.90
12481;DHT22;6305;48.398;11.762;2023-09-19T05:24:54;16.10;99.90
12481;DHT22;6305;48.398;11.762;2023-09-19T05:27:21;16.20;99.90
12481;DHT22;6305;48.398;11.762;2023-09-19T05:29:49;16.20;99.90
12481;DHT22;6305;48.398;11.762;2023-09-19T05:32:18;16.20;99.90
12481;DHT22;6305;48.398;11.762;2023-09-19T05:34:46;16.20;99.90
12481;DHT22;6305;48.398;11.762;2023-09-19T05:37:13;16.20;99.90
12481;DHT22;6305;48.398;11.762;2023-09-19T05:39:42;16.20;99.90
12481;DHT22;6305;48.398;11.762;2023-09-19T05:42:09;16.30;99.90
12481;DHT22;6305;48.398;11.762;2023-09-19T05:44:36;16.30;99.90
12481;DHT22;6305;48.398;11.762;2023-09-19T05:47:05;16.30;99.90
12481;DHT22;6305;48.398;11.762;2023-09-19T05:49:34;16.30;99.90
12481;DHT22;6305;48.398;11.762;2023-09-19T05:52:04;16.40;99.90
12481;DHT22;6305;48.398;11.762;2023-09-19T05:54:31;16.50;99.90
12481;DHT22;6305;48.398;11.762;2023-09-19T05:56:58;16.50;99.90
12481;DHT22;6305;48.398;11.762;2023-09-19T05:59:25;16.50;99.90
12481;DHT22;6305;48.398;11.762;2023-09-19T06:01:52;16.40;99.90
12481;DHT22;6305;48.398;11.762;2023-09-19T06:04:21;16.40;99.90
12481;DHT22;6305;48.398;11.762;2023-09-19T06:06:48;16.40;99.90
12481;DHT22;6305;48.398;11.762;2023-09-19T06:09:15;16.60;99.90
12481;DHT22;6305;48.398;11.762;2023-09-19T06:11:43;16.70;99.90
12481;DHT22;6305;48.398;11.762;2023-09-19T06:14:10;16.90;99.90
12481;DHT22;6305;48.398;11.762;2023-09-19T06:16:37;17.10;99.90
12481;DHT22;6305;48.398;11.762;2023-09-19T06:19:05;17.50;99.90
12481;DHT22;6305;48.398;11.762;2023-09-19T06:21:36;17.90;99.90
12481;DHT22;6305;48.398;11.762;2023-09-19T06:24:03;18.20;99.90
12481;DHT22;6305;48.398;11.762;2023-09-19T06:26:30;18.20;99.90
12481;DHT22;6305;48.398;11.762;2023-09-19T06:28:57;18.00;99.90
12481;DHT22;6305;48.398;11.762;2023-09-19T06:31:25;17.70;99.90
12481;DHT22;6305;48.398;11.762;2023-09-19T06:33:52;17.50;99.90
12481;DHT22;6305;48.398;11.762;2023-09-19T06:36:19;17.40;99.90
12481;DHT22;6305;48.398;11.762;2023-09-19T06:38:48;17.40;99.90
12481;DHT22;6305;48.398;11.762;2023-09-19T06:41:17;18.10;99.90
12481;DHT22;6305;48.398;11.762;2023-09-19T06:43:44;19.20;99.90
12481;DHT22;6305;48.398;11.762;2023-09-19T06:46:11;20.70;99.90
12481;DHT22;6305;48.398;11.762;2023-09-19T06:48:38;22.20;99.90
12481;DHT22;6305;48.398;11.762;2023-09-19T06:51:07;22.30;99.90
12481;DHT22;6305;48.398;11.762;2023-09-19T06:53:34;22.10;99.90
12481;DHT22;6305;48.398;11.762;2023-09-19T06:56:03;22.60;99.90
12481;DHT22;6305;48.398;11.762;2023-09-19T06:58:31;24.00;99.90
12481;DHT22;6305;48.398;11.762;2023-09-19T07:00:58;25.50;99.90
12481;DHT22;6305;48.398;11.762;2023-09-19T07:03:25;25.80;99.30
12481;DHT22;6305;48.398;11.762;2023-09-19T07:05:54;26.70;95.00
12481;DHT22;6305;48.398;11.762;2023-09-19T07:08:21;27.40;89.10
12481;DHT22;6305;48.398;11.762;2023-09-19T07:10:48;27.70;82.10
12481;DHT22;6305;48.398;11.762;2023-09-19T07:13:21;27.10;80.80
12481;DHT22;6305;48.398;11.762;2023-09-19T07:15:48;27.10;83.30
12481;DHT22;6305;48.398;11.762;2023-09-19T07:18:16;27.70;79.40
12481;DHT22;6305;48.398;11.762;2023-09-19T07:20:44;28.20;73.90
12481;DHT22;6305;48.398;11.762;2023-09-19T07:23:14;29.20;70.80
12481;DHT22;6305;48.398;11.762;2023-09-19T07:25:44;29.30;65.30
12481;DHT22;6305;48.398;11.762;2023-09-19T07:28:12;28.10;65.30
12481;DHT22;6305;48.398;11.762;2023-09-19T07:30:40;25.60;75.70
12481;DHT22;6305;48.398;11.762;2023-09-19T07:33:08;24.60;90.20
12481;DHT22;6305;48.398;11.762;2023-09-19T07:35:37;24.10;92.40
12481;DHT22;6305;48.398;11.762;2023-09-19T07:38:05;23.00;98.00
12481;DHT22;6305;48.398;11.762;2023-09-19T07:40:33;22.30;99.90
12481;DHT22;6305;48.398;11.762;2023-09-19T07:43:00;22.00;99.90
12481;DHT22;6305;48.398;11.762;2023-09-19T07:45:28;22.10;99.90
12481;DHT22;6305;48.398;11.762;2023-09-19T07:47:57;22.00;99.90
12481;DHT22;6305;48.398;11.762;2023-09-19T07:50:24;23.20;99.90
12481;DHT22;6305;48.398;11.762;2023-09-19T07:52:52;25.30;97.70
12481;DHT22;6305;48.398;11.762;2023-09-19T07:55:21;25.10;94.70
12481;DHT22;6305;48.398;11.762;2023-09-19T07:57:50;26.60;91.00
12481;DHT22;6305;48.398;11.762;2023-09-19T08:00:18;27.80;81.30
12481;DHT22;6305;48.398;11.762;2023-09-19T08:02:45;28.30;73.50
12481;DHT22;6305;48.398;11.762;2023-09-19T08:05:14;27.60;70.20
12481;DHT22;6305;48.398;11.762;2023-09-19T08:07:43;26.00;78.00
12481;DHT22;6305;48.398;11.762;2023-09-19T08:10:11;26.10;83.60
12481;DHT22;6305;48.398;11.762;2023-09-19T08:12:42;25.70;82.80
12481;DHT22;6305;48.398;11.762;2023-09-19T08:15:12;25.50;86.30
12481;DHT22;6305;48.398;11.762;2023-09-19T08:17:40;25.10;89.70
12481;DHT22;6305;48.398;11.762;2023-09-19T08:20:11;25.00;92.00
12481;DHT22;6305;48.398;11.762;2023-09-19T08:22:46;26.70;88.70
12481;DHT22;6305;48.398;11.762;2023-09-19T08:25:14;28.00;79.90
12481;DHT22;6305;48.398;11.762;2023-09-19T08:27:43;29.00;71.00
12481;DHT22;6305;48.398;11.762;2023-09-19T08:30:13;29.80;64.30
12481;DHT22;6305;48.398;11.762;2023-09-19T08:32:41;28.00;65.80
12481;DHT22;6305;48.398;11.762;2023-09-19T08:35:11;28.40;70.30
12481;DHT22;6305;48.398;11.762;2023-09-19T08:37:38;29.60;66.60
12481;DHT22;6305;48.398;11.762;2023-09-19T08:40:07;29.90;62.00
12481;DHT22;6305;48.398;11.762;2023-09-19T08:42:48;28.90;61.50
12481;DHT22;6305;48.398;11.762;2023-09-19T08:45:16;28.50;67.80
12481;DHT22;6305;48.398;11.762;2023-09-19T08:47:46;30.00;63.70
12481;DHT22;6305;48.398;11.762;2023-09-19T08:50:19;31.60;57.80
12481;DHT22;6305;48.398;11.762;2023-09-19T08:52:52;32.40;55.10
12481;DHT22;6305;48.398;11.762;2023-09-19T08:55:25;31.40;53.30
12481;DHT22;6305;48.398;11.762;2023-09-19T08:58:00;30.00;56.60
12481;DHT22;6305;48.398;11.762;2023-09-19T09:00:28;30.00;57.20
12481;DHT22;6305;48.398;11.762;2023-09-19T09:02:56;29.80;58.30
12481;DHT22;6305;48.398;11.762;2023-09-19T09:05:23;29.90;57.70
12481;DHT22;6305;48.398;11.762;2023-09-19T09:07:52;30.00;57.70
12481;DHT22;6305;48.398;11.762;2023-09-19T09:10:22;30.80;57.50
12481;DHT22;6305;48.398;11.762;2023-09-19T09:12:51;31.40;54.70
12481;DHT22;6305;48.398;11.762;2023-09-19T09:15:19;31.60;53.60
12481;DHT22;6305;48.398;11.762;2023-09-19T09:17:47;32.40;52.50
12481;DHT22;6305;48.398;11.762;2023-09-19T09:20:16;32.20;52.00
12481;DHT22;6305;48.398;11.762;2023-09-19T09:22:51;32.30;51.60
12481;DHT22;6305;48.398;11.762;2023-09-19T09:25:19;30.90;51.60
12481;DHT22;6305;48.398;11.762;2023-09-19T09:28:00;28.10;57.10
12481;DHT22;6305;48.398;11.762;2023-09-19T09:30:33;29.00;59.60
12481;DHT22;6305;48.398;11.762;2023-09-19T09:33:11;28.20;59.40
12481;DHT22;6305;48.398;11.762;2023-09-19T09:35:47;27.00;61.50
12481;DHT22;6305;48.398;11.762;2023-09-19T09:38:18;25.60;66.80
12481;DHT22;6305;48.398;11.762;2023-09-19T09:40:49;24.60;73.50
12481;DHT22;6305;48.398;11.762;2023-09-19T09:43:27;24.00;79.60
12481;DHT22;6305;48.398;11.762;2023-09-19T09:46:09;23.50;87.80
12481;DHT22;6305;48.398;11.762;2023-09-19T09:48:59;23.10;92.00
12481;DHT22;6305;48.398;11.762;2023-09-19T09:51:44;22.70;95.40
12481;DHT22;6305;48.398;11.762;2023-09-19T09:54:16;22.30;97.90
12481;DHT22;6305;48.398;11.762;2023-09-19T09:56:53;22.00;99.90
12481;DHT22;6305;48.398;11.762;2023-09-19T09:59:49;22.00;99.90
12481;DHT22;6305;48.398;11.762;2023-09-19T10:02:18;22.80;99.90
12481;DHT22;6305;48.398;11.762;2023-09-19T10:04:50;24.00;99.90
12481;DHT22;6305;48.398;11.762;2023-09-19T10:07:32;24.60;94.70
12481;DHT22;6305;48.398;11.762;2023-09-19T10:10:04;24.40;92.00
12481;DHT22;6305;48.398;11.762;2023-09-19T10:12:46;23.70;94.00
12481;DHT22;6305;48.398;11.762;2023-09-19T10:15:17;23.20;97.00
12481;DHT22;6305;48.398;11.762;2023-09-19T10:17:47;22.70;98.80
12481;DHT22;6305;48.398;11.762;2023-09-19T10:20:15;22.60;99.90
12481;DHT22;6305;48.398;11.762;2023-09-19T10:23:00;23.00;99.90
12481;DHT22;6305;48.398;11.762;2023-09-19T10:25:29;23.70;97.40
12481;DHT22;6305;48.398;11.762;2023-09-19T10:27:57;23.60;96.10
12481;DHT22;6305;48.398;11.762;2023-09-19T10:30:31;23.30;96.80
12481;DHT22;6305;48.398;11.762;2023-09-19T10:33:01;22.80;98.00
12481;DHT22;6305;48.398;11.762;2023-09-19T10:35:29;22.40;99.90
12481;DHT22;6305;48.398;11.762;2023-09-19T10:38:00;22.10;99.90
12481;DHT22;6305;48.398;11.762;2023-09-19T10:40:33;22.20;99.90
12481;DHT22;6305;48.398;11.762;2023-09-19T10:43:03;22.30;99.90
12481;DHT22;6305;48.398;11.762;2023-09-19T10:45:34;22.20;99.90
12481;DHT22;6305;48.398;11.762;2023-09-19T10:48:07;22.00;99.90
12481;DHT22;6305;48.398;11.762;2023-09-19T10:50:46;21.80;99.90
12481;DHT22;6305;48.398;11.762;2023-09-19T10:53:14;21.40;99.90
12481;DHT22;6305;48.398;11.762;2023-09-19T10:55:49;20.90;99.90
12481;DHT22;6305;48.398;11.762;2023-09-19T10:58:26;20.50;99.90
12481;DHT22;6305;48.398;11.762;2023-09-19T11:00:58;20.20;99.90
12481;DHT22;6305;48.398;11.762;2023-09-19T11:03:38;20.10;99.90
12481;DHT22;6305;48.398;11.762;2023-09-19T11:06:14;20.10;99.90
12481;DHT22;6305;48.398;11.762;2023-09-19T11:08:56;20.20;99.90
12481;DHT22;6305;48.398;11.762;2023-09-19T11:11:44;20.70;99.90
12481;DHT22;6305;48.398;11.762;2023-09-19T11:14:39;22.10;99.90
12481;DHT22;6305;48.398;11.762;2023-09-19T11:20:23;23.80;99.90
12481;DHT22;6305;48.398;11.762;2023-09-19T11:23:19;24.90;99.90
12481;DHT22;6305;48.398;11.762;2023-09-19T11:25:49;26.50;99.80
12481;DHT22;6305;48.398;11.762;2023-09-19T11:28:36;28.50;79.20
12481;DHT22;6305;48.398;11.762;2023-09-19T11:34:46;31.20;59.20
12481;DHT22;6305;48.398;11.762;2023-09-19T11:44:33;34.30;46.90
12481;DHT22;6305;48.398;11.762;2023-09-19T11:47:05;34.80;46.40
12481;DHT22;6305;48.398;11.762;2023-09-19T11:49:33;35.80;44.10
12481;DHT22;6305;48.398;11.762;2023-09-19T11:52:03;36.00;44.30
12481;DHT22;6305;48.398;11.762;2023-09-19T11:54:32;36.60;42.80
12481;DHT22;6305;48.398;11.762;2023-09-19T11:57:00;36.90;41.20
12481;DHT22;6305;48.398;11.762;2023-09-19T11:59:29;37.50;39.70
12481;DHT22;6305;48.398;11.762;2023-09-19T12:02:04;36.70;40.10
12481;DHT22;6305;48.398;11.762;2023-09-19T12:04:36;34.30;41.70
12481;DHT22;6305;48.398;11.762;2023-09-19T12:07:05;32.10;46.30
12481;DHT22;6305;48.398;11.762;2023-09-19T12:09:39;30.50;49.40
12481;DHT22;6305;48.398;11.762;2023-09-19T12:12:09;29.00;53.00
12481;DHT22;6305;48.398;11.762;2023-09-19T12:14:38;28.20;55.30
12481;DHT22;6305;48.398;11.762;2023-09-19T12:17:10;27.00;59.70
12481;DHT22;6305;48.398;11.762;2023-09-19T12:19:49;25.90;64.90
12481;DHT22;6305;48.398;11.762;2023-09-19T12:22:16;25.00;73.80
12481;DHT22;6305;48.398;11.762;2023-09-19T12:24:46;24.50;81.20
12481;DHT22;6305;48.398;11.762;2023-09-19T12:27:15;24.10;90.30
12481;DHT22;6305;48.398;11.762;2023-09-19T12:29:45;23.90;95.20
12481;DHT22;6305;48.398;11.762;2023-09-19T12:32:15;24.20;96.50
12481;DHT22;6305;48.398;11.762;2023-09-19T12:34:49;24.20;95.40
12481;DHT22;6305;48.398;11.762;2023-09-19T12:37:18;24.50;95.20
12481;DHT22;6305;48.398;11.762;2023-09-19T12:39:49;24.80;94.60
12481;DHT22;6305;48.398;11.762;2023-09-19T12:42:20;25.90;91.80
12481;DHT22;6305;48.398;11.762;2023-09-19T12:44:49;26.90;84.80
12481;DHT22;6305;48.398;11.762;2023-09-19T12:47:18;27.40;75.70
12481;DHT22;6305;48.398;11.762;2023-09-19T12:50:08;27.70;73.80
12481;DHT22;6305;48.398;11.762;2023-09-19T12:52:41;27.60;70.80
12481;DHT22;6305;48.398;11.762;2023-09-19T12:55:19;27.00;72.00
12481;DHT22;6305;48.398;11.762;2023-09-19T12:58:01;26.10;76.90
12481;DHT22;6305;48.398;11.762;2023-09-19T13:00:35;25.10;82.80
12481;DHT22;6305;48.398;11.762;2023-09-19T13:03:13;24.30;91.00
12481;DHT22;6305;48.398;11.762;2023-09-19T13:05:49;23.40;95.90
12481;DHT22;6305;48.398;11.762;2023-09-19T13:08:18;22.90;99.90
12481;DHT22;6305;48.398;11.762;2023-09-19T13:11:06;22.30;99.90
12481;DHT22;6305;48.398;11.762;2023-09-19T13:13:37;21.80;99.90
12481;DHT22;6305;48.398;11.762;2023-09-19T13:16:05;21.80;99.90
12481;DHT22;6305;48.398;11.762;2023-09-19T13:18:47;22.30;99.90
12481;DHT22;6305;48.398;11.762;2023-09-19T13:21:17;24.30;99.90
12481;DHT22;6305;48.398;11.762;2023-09-19T13:23:51;26.60;94.90
12481;DHT22;6305;48.398;11.762;2023-09-19T13:26:20;28.60;69.60
12481;DHT22;6305;48.398;11.762;2023-09-19T13:28:49;29.80;57.80
12481;DHT22;6305;48.398;11.762;2023-09-19T13:31:16;30.10;54.90
12481;DHT22;6305;48.398;11.762;2023-09-19T13:33:44;30.20;54.20
12481;DHT22;6305;48.398;11.762;2023-09-19T13:36:11;30.40;53.20
12481;DHT22;6305;48.398;11.762;2023-09-19T13:38:41;30.70;52.30
12481;DHT22;6305;48.398;11.762;2023-09-19T13:41:09;31.10;50.70
12481;DHT22;6305;48.398;11.762;2023-09-19T13:43:37;31.60;48.90
12481;DHT22;6305;48.398;11.762;2023-09-19T13:46:06;32.00;48.10
12481;DHT22;6305;48.398;11.762;2023-09-19T13:48:37;32.00;46.50
12481;DHT22;6305;48.398;11.762;2023-09-19T13:51:04;31.30;46.40
12481;DHT22;6305;48.398;11.762;2023-09-19T13:53:31;31.00;46.80
12481;DHT22;6305;48.398;11.762;2023-09-19T13:55:58;30.60;47.40
12481;DHT22;6305;48.398;11.762;2023-09-19T13:58:25;30.20;47.50
12481;DHT22;6305;48.398;11.762;2023-09-19T14:00:53;30.00;48.70
12481;DHT22;6305;48.398;11.762;2023-09-19T14:03:22;29.90;49.50
12481;DHT22;6305;48.398;11.762;2023-09-19T14:05:49;30.20;49.60
12481;DHT22;6305;48.398;11.762;2023-09-19T14:08:17;30.70;47.20
12481;DHT22;6305;48.398;11.762;2023-09-19T14:10:44;31.30;46.30
12481;DHT22;6305;48.398;11.762;2023-09-19T14:13:11;32.00;46.10
12481;DHT22;6305;48.398;11.762;2023-09-19T14:15:40;32.20;44.30
12481;DHT22;6305;48.398;11.762;2023-09-19T14:18:08;32.30;43.70
12481;DHT22;6305;48.398;11.762;2023-09-19T14:20:38;32.10;44.20
12481;DHT22;6305;48.398;11.762;2023-09-19T14:23:06;32.00;43.70
12481;DHT22;6305;48.398;11.762;2023-09-19T14:25:34;31.90;44.10
12481;DHT22;6305;48.398;11.762;2023-09-19T14:28:02;31.80;44.80
12481;DHT22;6305;48.398;11.762;2023-09-19T14:30:29;31.80;44.90
12481;DHT22;6305;48.398;11.762;2023-09-19T14:32:56;31.60;44.30
12481;DHT22;6305;48.398;11.762;2023-09-19T14:35:23;30.80;44.90
12481;DHT22;6305;48.398;11.762;2023-09-19T14:37:52;29.00;46.90
12481;DHT22;6305;48.398;11.762;2023-09-19T14:40:19;27.50;50.90
12481;DHT22;6305;48.398;11.762;2023-09-19T14:42:48;26.30;54.50
12481;DHT22;6305;48.398;11.762;2023-09-19T14:45:15;25.30;57.40
12481;DHT22;6305;48.398;11.762;2023-09-19T14:47:45;24.90;60.20
12481;DHT22;6305;48.398;11.762;2023-09-19T14:50:12;25.10;61.30
12481;DHT22;6305;48.398;11.762;2023-09-19T14:52:40;26.00;60.70
12481;DHT22;6305;48.398;11.762;2023-09-19T14:55:09;27.40;57.70
12481;DHT22;6305;48.398;11.762;2023-09-19T14:57:40;28.50;54.40
12481;DHT22;6305;48.398;11.762;2023-09-19T15:00:11;29.20;51.60
12481;DHT22;6305;48.398;11.762;2023-09-19T15:02:38;29.00;52.20
12481;DHT22;6305;48.398;11.762;2023-09-19T15:05:06;29.10;51.80
12481;DHT22;6305;48.398;11.762;2023-09-19T15:07:35;28.90;51.80
12481;DHT22;6305;48.398;11.762;2023-09-19T15:10:04;29.30;50.90
12481;DHT22;6305;48.398;11.762;2023-09-19T15:12:55;28.80;51.00
12481;DHT22;6305;48.398;11.762;2023-09-19T15:15:47;27.10;53.20
12481;DHT22;6305;48.398;11.762;2023-09-19T15:18:26;26.40;56.30
12481;DHT22;6305;48.398;11.762;2023-09-19T15:21:09;25.70;57.60
12481;DHT22;6305;48.398;11.762;2023-09-19T15:23:37;25.30;59.70
12481;DHT22;6305;48.398;11.762;2023-09-19T15:26:09;24.70;63.00
12481;DHT22;6305;48.398;11.762;2023-09-19T15:28:51;24.20;66.50
12481;DHT22;6305;48.398;11.762;2023-09-19T15:31:26;23.70;71.80
12481;DHT22;6305;48.398;11.762;2023-09-19T15:33:53;23.30;78.00
12481;DHT22;6305;48.398;11.762;2023-09-19T15:36:20;23.00;83.90
12481;DHT22;6305;48.398;11.762;2023-09-19T15:38:58;22.70;87.90
12481;DHT22;6305;48.398;11.762;2023-09-19T15:41:27;22.40;91.30
12481;DHT22;6305;48.398;11.762;2023-09-19T15:43:56;22.10;93.70
12481;DHT22;6305;48.398;11.762;2023-09-19T15:46:25;21.90;95.20
12481;DHT22;6305;48.398;11.762;2023-09-19T15:48:53;21.70;96.00
12481;DHT22;6305;48.398;11.762;2023-09-19T15:51:19;21.60;98.20
12481;DHT22;6305;48.398;11.762;2023-09-19T15:53:48;21.40;99.10
12481;DHT22;6305;48.398;11.762;2023-09-19T15:56:15;21.30;99.90
12481;DHT22;6305;48.398;11.762;2023-09-19T15:58:44;21.20;99.90
12481;DHT22;6305;48.398;11.762;2023-09-19T16:01:15;21.10;99.90
12481;DHT22;6305;48.398;11.762;2023-09-19T16:03:43;21.00;99.90
12481;DHT22;6305;48.398;11.762;2023-09-19T16:06:12;20.90;99.90
12481;DHT22;6305;48.398;11.762;2023-09-19T16:08:40;20.90;99.90